Weather History for Thief River Falls, MN

Change the Weather History Date:

Wednesday, March 26, 2014

  Actual Average Record
Temperature  
Mean Temperature 20 °F -  
Max Temperature 33 °F 36 °F 57 °F (1973)
Min Temperature 6 °F 21 °F -10 °F (1974)
Degree Days  
Heating Degree Days 46    
Moisture  
Dew Point 10 °F    
Average Humidity 62    
Maximum Humidity 79    
Minimum Humidity 47    
Precipitation  
Precipitation 0.00 in - - ()
Sea Level Pressure  
Sea Level Pressure 29.78 in    
Wind  
Wind Speed 9 mph (ESE)    
Max Wind Speed 17 mph    
Max Gust Speed 21 mph    
Visibility 10 miles    
Events      
Averages and records for this station are not official NWS values.
T = Trace of Precipitation, MM = Missing Value Source: NWS Daily Summary

Daily Weather History Graph

Daily Weather History Graph

Search for Another Location

Airport:

Trip Planner

Search our weather history database for the weather conditions in past years. The results will help you decide how hot, cold, wet, or windy it might be!

Date:

Astronomy

Mar. 26, 2014 Rise Set
Actual Time 7:15 AM CDT 7:46 PM CDT
Civil Twilight 6:44 AM CDT 8:17 PM CDT
Nautical Twilight 6:07 AM CDT 8:54 PM CDT
Astronomical Twilight 5:28 AM CDT 9:33 PM CDT
Moon 4:43 AM CDT (3/26) 3:08 PM CDT (3/26)
Length of Visible Light 13h 33m
Length of Day
12h 31m
Waning Crescent, 21% of the Moon is Illuminated
Mar 26
Waning Crescent
Mar 30
New
Apr 7
First Quarter
Apr 15
Full
Apr 22
Last Quarter

Hourly Weather History & Observations

Time (CDT) Temp. Windchill Dew Point Humidity Pressure Visibility Wind Dir Wind Speed Gust Speed Precip Events Conditions
12:15 AM 10.4 °F 2.2 °F 1.4 °F 67% 30.03 in 10.0 mi SE 4.6 mph - N/A   Clear
12:35 AM 8.6 °F -1.3 °F 1.4 °F 73% 30.03 in 10.0 mi SSE 5.8 mph - N/A   Clear
12:55 AM 8.6 °F -1.3 °F 3.2 °F 79% 30.02 in 10.0 mi SSE 5.8 mph - N/A   Clear
1:15 AM 8.6 °F -1.3 °F 1.4 °F 73% 30.02 in 10.0 mi SSE 5.8 mph - N/A   Clear
1:35 AM 8.6 °F -1.3 °F 1.4 °F 73% 30.02 in 10.0 mi SSE 5.8 mph - N/A   Clear
1:55 AM 8.6 °F 0.1 °F 1.4 °F 73% 30.01 in 10.0 mi SSE 4.6 mph - N/A   Clear
2:15 AM 8.6 °F -2.6 °F 1.4 °F 73% 30.01 in 10.0 mi SSE 6.9 mph - N/A   Clear
2:35 AM 6.8 °F -3.5 °F 1.4 °F 79% 30.00 in 10.0 mi SSE 5.8 mph - N/A   Clear
2:55 AM 8.6 °F -1.3 °F 1.4 °F 73% 29.99 in 10.0 mi SSE 5.8 mph - N/A   Clear
3:15 AM 8.6 °F -1.3 °F 1.4 °F 73% 29.98 in 10.0 mi SSE 5.8 mph - N/A   Clear
3:35 AM 8.6 °F -1.3 °F 1.4 °F 73% 29.98 in 10.0 mi SSE 5.8 mph - N/A   Clear
3:55 AM 8.6 °F -1.3 °F 1.4 °F 73% 29.97 in 10.0 mi SE 5.8 mph - N/A   Clear
4:15 AM 8.6 °F -3.7 °F 1.4 °F 73% 29.96 in 10.0 mi SE 8.1 mph - N/A   Scattered Clouds
4:35 AM 8.6 °F -2.6 °F 3.2 °F 79% 29.95 in 10.0 mi SE 6.9 mph - N/A   Overcast
4:55 AM 10.4 °F -0.4 °F 3.2 °F 73% 29.94 in 10.0 mi SE 6.9 mph - N/A   Overcast
5:15 AM 10.4 °F -0.4 °F 3.2 °F 73% 29.93 in 10.0 mi SE 6.9 mph - N/A   Overcast
5:35 AM 10.4 °F -0.4 °F 3.2 °F 73% 29.93 in 10.0 mi SE 6.9 mph - N/A   Overcast
5:55 AM 10.4 °F -1.5 °F 3.2 °F 73% 29.93 in 10.0 mi SE 8.1 mph - N/A   Mostly Cloudy
6:15 AM 10.4 °F -1.5 °F 3.2 °F 73% 29.92 in 10.0 mi SE 8.1 mph - N/A   Scattered Clouds
6:35 AM 12.2 °F 0.7 °F 3.2 °F 67% 29.91 in 10.0 mi SE 8.1 mph - N/A   Mostly Cloudy
6:55 AM 12.2 °F 0.7 °F 3.2 °F 67% 29.91 in 10.0 mi SE 8.1 mph - N/A   Overcast
7:15 AM 14.0 °F 3.9 °F 5.0 °F 67% 29.91 in 10.0 mi SE 6.9 mph - N/A   Overcast
7:35 AM 14.0 °F 2.9 °F 6.8 °F 73% 29.90 in 10.0 mi SE 8.1 mph - N/A   Overcast
7:55 AM 15.8 °F 4.2 °F 6.8 °F 68% 29.89 in 10.0 mi SE 9.2 mph - N/A   Mostly Cloudy
8:15 AM 15.8 °F 5.1 °F 6.8 °F 68% 29.89 in 10.0 mi SE 8.1 mph - N/A   Scattered Clouds
8:35 AM 15.8 °F 4.2 °F 6.8 °F 68% 29.88 in 10.0 mi SE 9.2 mph - N/A   Overcast
8:55 AM 17.6 °F 5.7 °F 6.8 °F 63% 29.87 in 10.0 mi SE 10.4 mph - N/A   Overcast
9:15 AM 17.6 °F 5.0 °F 6.8 °F 63% 29.86 in 10.0 mi SE 11.5 mph - N/A   Scattered Clouds
9:35 AM 19.4 °F 8.6 °F 8.6 °F 63% 29.86 in 10.0 mi SE 9.2 mph - N/A   Partly Cloudy
9:55 AM 19.4 °F 7.2 °F 8.6 °F 63% 29.85 in 10.0 mi SE 11.5 mph - N/A   Mostly Cloudy
10:15 AM 21.2 °F 8.3 °F 10.4 °F 63% 29.83 in 10.0 mi ESE 13.8 mph - N/A   Overcast
10:35 AM 21.2 °F 8.9 °F 10.4 °F 63% 29.82 in 10.0 mi ESE 12.7 mph - N/A   Mostly Cloudy
10:55 AM 23.0 °F 11.7 °F 10.4 °F 59% 29.80 in 10.0 mi ESE 11.5 mph - N/A   Overcast
11:15 AM 24.8 °F 12.9 °F 10.4 °F 54% 29.79 in 10.0 mi ESE 13.8 mph - N/A   Overcast
11:35 AM 24.8 °F 12.4 °F 10.4 °F 54% 29.76 in 10.0 mi ESE 15.0 mph - N/A   Overcast
11:55 AM 26.6 °F 14.7 °F 10.4 °F 51% 29.74 in 10.0 mi ESE 15.0 mph - N/A   Overcast
12:15 PM 26.6 °F 14.7 °F 12.2 °F 55% 29.73 in 10.0 mi East 15.0 mph - N/A   Scattered Clouds
12:35 PM 26.6 °F 15.2 °F 10.4 °F 51% 29.72 in 10.0 mi ESE 13.8 mph - N/A   Clear
12:55 PM 26.6 °F 14.7 °F 12.2 °F 55% 29.71 in 10.0 mi East 15.0 mph - N/A   Partly Cloudy
1:15 PM 26.6 °F 14.3 °F 12.2 °F 55% 29.69 in 10.0 mi East 16.1 mph - N/A   Scattered Clouds
1:35 PM 28.4 °F 17.5 °F 12.2 °F 51% 29.69 in 10.0 mi East 13.8 mph - N/A   Mostly Cloudy
1:55 PM 28.4 °F 17.0 °F 14.0 °F 55% 29.67 in 10.0 mi East 15.0 mph - N/A   Scattered Clouds
2:15 PM 30.2 °F 19.8 °F 12.2 °F 47% 29.68 in 10.0 mi East 13.8 mph - N/A   Clear
2:35 PM 30.2 °F 20.2 °F 12.2 °F 47% 29.67 in 10.0 mi East 12.7 mph - N/A   Partly Cloudy
2:55 PM 30.2 °F 18.9 °F 15.8 °F 55% 29.65 in 10.0 mi East 16.1 mph - N/A   Clear
3:15 PM 30.2 °F 19.3 °F 15.8 °F 55% 29.65 in 10.0 mi East 15.0 mph - N/A   Partly Cloudy
3:35 PM 32.0 °F 21.2 °F 15.8 °F 51% 29.64 in 10.0 mi East 16.1 mph - N/A   Clear
3:55 PM 30.2 °F 18.9 °F 15.8 °F 55% 29.64 in 10.0 mi East 16.1 mph - N/A   Clear
4:15 PM 32.0 °F 22.1 °F 15.8 °F 51% 29.64 in 10.0 mi East 13.8 mph - N/A   Clear
4:35 PM 32.0 °F 20.8 °F 15.8 °F 51% 29.63 in 10.0 mi East 17.3 mph - N/A   Clear
4:55 PM 32.0 °F 22.1 °F 15.8 °F 51% 29.63 in 10.0 mi East 13.8 mph - N/A   Clear
5:15 PM 33.8 °F 24.8 °F 15.8 °F 48% 29.64 in 10.0 mi East 12.7 mph - N/A   Clear
5:35 PM 32.0 °F 23.0 °F 15.8 °F 51% 29.63 in 10.0 mi East 11.5 mph - N/A   Clear
5:55 PM 32.0 °F 23.6 °F 15.8 °F 51% 29.63 in 10.0 mi ENE 10.4 mph - N/A   Clear
6:15 PM 30.2 °F 20.8 °F 17.6 °F 60% 29.63 in 10.0 mi ENE 11.5 mph - N/A   Partly Cloudy
6:35 PM 30.2 °F 21.3 °F 17.6 °F 60% 29.63 in 10.0 mi ENE 10.4 mph - N/A   Partly Cloudy
6:55 PM 30.2 °F 20.8 °F 17.6 °F 60% 29.63 in 10.0 mi NE 11.5 mph - N/A   Scattered Clouds
7:15 PM 30.2 °F 20.2 °F 17.6 °F 60% 29.63 in 10.0 mi ENE 12.7 mph - N/A   Mostly Cloudy
7:35 PM 30.2 °F 19.8 °F 15.8 °F 55% 29.63 in 10.0 mi ENE 13.8 mph - N/A   Overcast
7:55 PM 30.2 °F 20.8 °F 15.8 °F 55% 29.63 in 10.0 mi ENE 11.5 mph - N/A   Overcast
8:15 PM 30.2 °F 20.2 °F 15.8 °F 55% 29.62 in 10.0 mi ENE 12.7 mph - N/A   Overcast
8:35 PM 30.2 °F 20.2 °F 15.8 °F 55% 29.62 in 10.0 mi ENE 12.7 mph - N/A   Overcast
8:55 PM 30.2 °F 20.2 °F 17.6 °F 60% 29.62 in 10.0 mi NE 12.7 mph - N/A   Overcast
9:15 PM 30.2 °F 20.8 °F 15.8 °F 55% 29.62 in 10.0 mi ENE 11.5 mph - N/A   Overcast
9:35 PM 30.2 °F 20.2 °F 15.8 °F 55% 29.62 in 10.0 mi ENE 12.7 mph - N/A   Overcast
9:55 PM 30.2 °F 20.2 °F 15.8 °F 55% 29.61 in 10.0 mi ENE 12.7 mph - N/A   Overcast
10:15 PM 30.2 °F 20.8 °F 17.6 °F 60% 29.61 in 10.0 mi ENE 11.5 mph - N/A   Overcast
10:35 PM 30.2 °F 20.2 °F 17.6 °F 60% 29.61 in 10.0 mi NE 12.7 mph - N/A   Overcast
10:55 PM 30.2 °F 20.8 °F 17.6 °F 60% 29.61 in 10.0 mi NE 11.5 mph - N/A   Overcast
11:15 PM 28.4 °F 17.5 °F 15.8 °F 59% 29.61 in 10.0 mi NNE 13.8 mph - N/A   Overcast
11:35 PM 28.4 °F 17.0 °F 15.8 °F 59% 29.61 in 10.0 mi NE 15.0 mph - N/A   Overcast
11:55 PM 28.4 °F 16.6 °F 17.6 °F 64% 29.61 in 10.0 mi NE 16.1 mph 20.7 mph N/A   Overcast